Impacts TAF Board INFO
FOR SITUATIONAL AWARENESS. NOT TO BE USED FOR FLIGHT PLANNING PURPOSES.
IDs:

KEWR - Newark Intl, NJ, US

Issued at 1356 UTC 21 Jul 2017
Updated at 1519 UTC 21 Jul 2017
Potential Impact None Slight Moderate High
Time1451Z 21/16Z 21/17Z 21/18Z 21/19Z 21/20Z 21/21Z 21/22Z 21/23Z 22/00Z 22/01Z 22/02Z 22/03Z 22/04Z>>
Type OBS PRVL PRVL PRVL PRVL PRVL PRVL PRVL PRVL PRVL PRVL PRVL PRVL PRVL
VIS 10 >6 >6 >6 >6 >6 >6 >6 >6 >6 >6 >6 >6 >6
CIG -- -- -- -- -- -- -- -- -- -- -- -- -- --
Cover SCT FEW FEW SCT SCT SCT SCT SCT SCT SCT SCT SCT SCT FEW
FltCat VFR VFR VFR VFR VFR VFR VFR VFR VFR VFR VFR VFR VFR VFR
WX -- -- -- -- -- -- -- -- -- -- -- -- -- --
WDir 300 280 280 280 280 280 280 270 270 290 290 290 290 310
WSpd 7 8 8 11 11 11 11 11 11 11 11 11 11 7
WGst -- -- -- 17 17 17 17 -- -- -- -- -- -- --

Raw TAF
KEWR 211356Z 2114/2218 31007KT P6SM FEW030
  FM211600 28008KT P6SM FEW040 FEW080
  FM211800 28011G17KT P6SM SCT050
  FM212200 27011KT P6SM SCT050
  FM220000 29011KT P6SM SCT050
  FM220400 31007KT P6SM FEW060
  FM220900 34004KT P6SM SKC
  FM221700 23005KT P6SM FEW040 FEW250


Raw METAR
KEWR 211451Z 30007KT 10SM FEW040 FEW095 SCT250 31/20 A2991 RMK AO2 SLP129 T03060200 50002
KEWR 211351Z 29010G18KT 10SM FEW050 SCT095 SCT250 29/20 A2992 RMK AO2 SLP132 T02940200
KEWR 211251Z 28006KT 10SM SCT095 BKN250 28/21 A2992 RMK AO2 SLP133 T02830206

METAR Board
Radar Display
Forecast Discussion

FOR SITUATIONAL AWARENESS. NOT TO BE USED FOR FLIGHT PLANNING PURPOSES.